Time;durP1;ratioP1;P1;durP2;ratioP2;P2;SDS_P1;SDS_P2;PMS_P1;PMS_P2;Temp;Humidity;BMP_temperature;BMP_pressure;BME280_temperature;BME280_humidity;BME280_pressure;Samples;Min_cycle;Max_cycle;Signal;HPM_P1;HPM_P2
2023/08/05 00:01:32;;;;;;;9.50;5.83;;;;;;;;;;5134726;27;20922;-75
2023/08/05 00:03:59;;;;;;;15.93;5.87;;;;;;;;;;5134982;27;20440;-75
2023/08/05 00:06:26;;;;;;;12.50;7.30;;;;;;;;;;5135043;27;20552;-82
2023/08/05 00:08:53;;;;;;;14.70;6.10;;;;;;;;;;5134687;27;20963;-75
2023/08/05 00:11:21;;;;;;;8.90;6.40;;;;;;;;;;5134561;27;20832;-76
2023/08/05 00:13:49;;;;;;;8.20;6.90;;;;;;;;;;5135110;27;20955;-76
2023/08/05 00:16:17;;;;;;;7.43;6.10;;;;;;;;;;5134655;27;20530;-76
2023/08/05 00:18:44;;;;;;;13.73;6.93;;;;;;;;;;5134534;27;20443;-76
2023/08/05 00:21:11;;;;;;;10.03;7.37;;;;;;;;;;5134781;27;20795;-76
2023/08/05 00:23:38;;;;;;;8.23;7.23;;;;;;;;;;5134447;27;20472;-75
2023/08/05 00:26:06;;;;;;;13.00;7.03;;;;;;;;;;5134626;27;20441;-76
2023/08/05 00:28:33;;;;;;;10.10;6.67;;;;;;;;;;5134544;27;20434;-75
2023/08/05 00:31:01;;;;;;;13.40;6.97;;;;;;;;;;5133957;27;20478;-75
2023/08/05 00:33:28;;;;;;;12.20;8.17;;;;;;;;;;5134171;27;20440;-75
2023/08/05 00:35:56;;;;;;;6.63;6.03;;;;;;;;;;5133877;27;20550;-75
2023/08/05 00:38:23;;;;;;;7.27;6.53;;;;;;;;;;5133962;27;20901;-75
2023/08/05 00:40:50;;;;;;;7.33;6.63;;;;;;;;;;5134691;27;20539;-75
2023/08/05 00:43:17;;;;;;;12.13;6.50;;;;;;;;;;5133818;27;20451;-74
2023/08/05 00:45:45;;;;;;;12.03;7.63;;;;;;;;;;5133989;27;21028;-75
2023/08/05 00:48:13;;;;;;;8.47;6.53;;;;;;;;;;5133787;27;20533;-75
2023/08/05 00:50:41;;;;;;;12.93;7.90;;;;;;;;;;5133812;27;20989;-75
2023/08/05 00:53:08;;;;;;;7.20;6.50;;;;;;;;;;5133935;27;20440;-75
2023/08/05 00:55:36;;;;;;;9.03;6.90;;;;;;;;;;5133727;27;20532;-75
2023/08/05 00:58:03;;;;;;;7.20;6.40;;;;;;;;;;5133992;27;20520;-75
2023/08/05 01:00:30;;;;;;;9.87;7.40;;;;;;;;;;5134019;27;20556;-75
2023/08/05 01:02:57;;;;;;;9.70;6.43;;;;;;;;;;5133613;27;20430;-75
2023/08/05 01:05:26;;;;;;;8.47;6.50;;;;;;;;;;5134248;27;20478;-76
2023/08/05 01:07:54;;;;;;;10.20;7.00;;;;;;;;;;5133883;27;20445;-75
2023/08/05 01:10:21;;;;;;;7.73;6.20;;;;;;;;;;5133725;27;20993;-76
2023/08/05 01:12:48;;;;;;;8.80;6.20;;;;;;;;;;5133871;28;20519;-76
2023/08/05 01:15:15;;;;;;;6.53;5.83;;;;;;;;;;5133884;28;20535;-75
2023/08/05 01:17:42;;;;;;;8.77;7.57;;;;;;;;;;5133810;28;20437;-75
2023/08/05 01:20:12;;;;;;;9.80;5.83;;;;;;;;;;5133809;28;20444;-75
2023/08/05 01:22:42;;;;;;;7.17;6.07;;;;;;;;;;5133766;28;20437;-76
2023/08/05 01:25:18;;;;;;;11.30;5.93;;;;;;;;;;5133857;28;20464;-75
2023/08/05 01:27:45;;;;;;;6.67;5.07;;;;;;;;;;5133735;28;20501;-76
2023/08/05 01:30:12;;;;;;;7.33;6.17;;;;;;;;;;5133434;28;20440;-75
2023/08/05 01:32:40;;;;;;;8.03;6.70;;;;;;;;;;5133501;28;20476;-76
2023/08/05 01:35:09;;;;;;;9.03;5.70;;;;;;;;;;5133711;28;20530;-75
2023/08/05 01:37:36;;;;;;;8.13;6.00;;;;;;;;;;5133920;28;20438;-75
2023/08/05 01:40:04;;;;;;;7.73;6.20;;;;;;;;;;5133630;28;20445;-75
2023/08/05 01:42:33;;;;;;;9.00;5.73;;;;;;;;;;5133640;28;20486;-76
2023/08/05 01:45:00;;;;;;;11.70;5.93;;;;;;;;;;5133645;28;20519;-75
2023/08/05 01:47:27;;;;;;;10.87;5.57;;;;;;;;;;5133345;28;20537;-75
2023/08/05 01:49:55;;;;;;;6.57;5.80;;;;;;;;;;5133178;28;20437;-75
2023/08/05 01:52:22;;;;;;;7.40;5.37;;;;;;;;;;5133327;28;20480;-75
2023/08/05 01:54:49;;;;;;;6.50;5.83;;;;;;;;;;5133565;28;20437;-75
2023/08/05 01:57:16;;;;;;;9.90;5.97;;;;;;;;;;5133010;28;20525;-75
2023/08/05 01:59:45;;;;;;;10.50;5.53;;;;;;;;;;5135189;27;20467;-75
2023/08/05 02:02:12;;;;;;;8.10;5.70;;;;;;;;;;5137142;27;20444;-75
2023/08/05 02:04:39;;;;;;;11.03;6.97;;;;;;;;;;5137232;27;20527;-75
2023/08/05 02:07:07;;;;;;;8.53;6.30;;;;;;;;;;5137496;27;20437;-75
2023/08/05 02:09:34;;;;;;;7.40;5.93;;;;;;;;;;5137296;27;21016;-76
2023/08/05 02:12:01;;;;;;;9.47;6.90;;;;;;;;;;5137361;27;20473;-74
2023/08/05 02:14:28;;;;;;;6.73;6.03;;;;;;;;;;5136921;27;20468;-75
2023/08/05 02:16:57;;;;;;;9.40;6.30;;;;;;;;;;5136988;27;20860;-76
2023/08/05 02:19:24;;;;;;;11.30;6.10;;;;;;;;;;5136914;27;20442;-75
2023/08/05 02:21:51;;;;;;;6.53;5.93;;;;;;;;;;5136467;27;20444;-75
2023/08/05 02:24:18;;;;;;;5.53;4.90;;;;;;;;;;5136543;27;20997;-75
2023/08/05 02:26:46;;;;;;;8.60;6.63;;;;;;;;;;5136962;27;20439;-76
2023/08/05 02:29:13;;;;;;;8.87;6.47;;;;;;;;;;5136812;27;20443;-75
2023/08/05 02:31:40;;;;;;;10.23;6.67;;;;;;;;;;5136163;27;20479;-75
2023/08/05 02:34:09;;;;;;;7.70;6.90;;;;;;;;;;5136285;27;21028;-75
2023/08/05 02:36:36;;;;;;;10.83;6.23;;;;;;;;;;5137211;27;20539;-76
2023/08/05 02:39:03;;;;;;;9.60;6.30;;;;;;;;;;5136362;27;20471;-76
2023/08/05 02:41:30;;;;;;;9.60;6.50;;;;;;;;;;5136909;27;20456;-75
2023/08/05 02:43:58;;;;;;;10.50;6.30;;;;;;;;;;5136502;27;20560;-75
2023/08/05 02:46:25;;;;;;;14.03;7.53;;;;;;;;;;5136352;27;20441;-75
2023/08/05 02:48:53;;;;;;;9.43;6.20;;;;;;;;;;5136443;27;20870;-75
2023/08/05 02:51:21;;;;;;;7.17;6.10;;;;;;;;;;5136336;27;20480;-75
2023/08/05 02:53:48;;;;;;;10.47;6.60;;;;;;;;;;5136300;27;20893;-75
2023/08/05 02:56:15;;;;;;;9.13;7.40;;;;;;;;;;5136055;27;20447;-75
2023/08/05 02:58:43;;;;;;;10.27;9.27;;;;;;;;;;5136032;27;20430;-74
2023/08/05 03:01:10;;;;;;;10.10;6.50;;;;;;;;;;5136179;27;20532;-76
2023/08/05 03:03:38;;;;;;;9.63;6.63;;;;;;;;;;5136321;27;20852;-75
2023/08/05 03:06:05;;;;;;;6.70;5.90;;;;;;;;;;5136399;27;20862;-75
2023/08/05 03:08:33;;;;;;;11.33;7.57;;;;;;;;;;5135991;27;20467;-76
2023/08/05 03:11:01;;;;;;;19.87;7.07;;;;;;;;;;5135893;27;20469;-75
2023/08/05 03:13:29;;;;;;;8.57;6.83;;;;;;;;;;5135808;27;20437;-76
2023/08/05 03:15:56;;;;;;;11.77;7.80;;;;;;;;;;5135946;27;20510;-75
2023/08/05 03:18:23;;;;;;;10.47;7.33;;;;;;;;;;5135694;27;20528;-75
2023/08/05 03:20:51;;;;;;;8.80;6.97;;;;;;;;;;5135444;27;20444;-76
2023/08/05 03:23:18;;;;;;;8.13;7.10;;;;;;;;;;5135976;27;20536;-75
2023/08/05 03:25:47;;;;;;;8.93;7.87;;;;;;;;;;5135460;27;20982;-75
2023/08/05 03:28:14;;;;;;;10.07;6.63;;;;;;;;;;5135351;27;20526;-76
2023/08/05 03:30:41;;;;;;;11.83;7.30;;;;;;;;;;5135785;27;20805;-75
2023/08/05 03:33:08;;;;;;;7.70;6.40;;;;;;;;;;5135400;27;20837;-75
2023/08/05 03:35:35;;;;;;;11.03;7.10;;;;;;;;;;5136020;27;20472;-76
2023/08/05 03:38:03;;;;;;;9.40;6.73;;;;;;;;;;5135104;27;20948;-76
2023/08/05 03:40:30;;;;;;;8.03;6.60;;;;;;;;;;5135342;27;20444;-78
2023/08/05 03:42:59;;;;;;;9.80;6.47;;;;;;;;;;5134948;27;20950;-76
2023/08/05 03:45:26;;;;;;;9.27;7.70;;;;;;;;;;5135426;27;20447;-76
2023/08/05 03:47:54;;;;;;;9.00;7.67;;;;;;;;;;5135392;27;20511;-75
2023/08/05 03:50:22;;;;;;;8.23;7.43;;;;;;;;;;5135571;27;20527;-78
2023/08/05 03:52:49;;;;;;;10.10;7.83;;;;;;;;;;5134630;27;20930;-75
2023/08/05 03:55:17;;;;;;;9.40;7.00;;;;;;;;;;5133837;27;20934;-76
2023/08/05 03:57:46;;;;;;;13.37;6.93;;;;;;;;;;5134466;27;20444;-75
2023/08/05 04:00:15;;;;;;;9.50;7.60;;;;;;;;;;5134147;27;20515;-75
2023/08/05 04:02:43;;;;;;;11.20;7.80;;;;;;;;;;5134198;27;21017;-75
2023/08/05 04:05:10;;;;;;;10.83;8.03;;;;;;;;;;5134213;27;20441;-75
2023/08/05 04:07:38;;;;;;;10.60;7.50;;;;;;;;;;5134660;27;20783;-76
2023/08/05 04:10:06;;;;;;;10.27;7.57;;;;;;;;;;5134133;27;21008;-75
2023/08/05 04:12:35;;;;;;;14.03;8.77;;;;;;;;;;5134489;27;20589;-76
2023/08/05 04:15:03;;;;;;;9.40;8.50;;;;;;;;;;5134687;27;20532;-75
2023/08/05 04:17:31;;;;;;;9.47;7.90;;;;;;;;;;5134560;27;20516;-75
2023/08/05 04:20:00;;;;;;;8.53;7.50;;;;;;;;;;5134514;27;20519;-75
2023/08/05 04:22:27;;;;;;;10.10;7.43;;;;;;;;;;5133726;27;20451;-76
2023/08/05 04:24:54;;;;;;;12.10;7.30;;;;;;;;;;5134067;27;20933;-77
2023/08/05 04:27:22;;;;;;;11.97;7.80;;;;;;;;;;5134498;27;20465;-76
2023/08/05 04:29:50;;;;;;;11.03;7.83;;;;;;;;;;5134264;27;20939;-75
2023/08/05 04:32:17;;;;;;;8.93;8.03;;;;;;;;;;5134143;27;20568;-76
2023/08/05 04:34:46;;;;;;;8.83;7.87;;;;;;;;;;5134441;27;20522;-76
2023/08/05 04:37:15;;;;;;;10.67;7.67;;;;;;;;;;5134685;27;20562;-76
2023/08/05 04:39:43;;;;;;;9.43;8.30;;;;;;;;;;5133833;27;20883;-76
2023/08/05 04:42:10;;;;;;;9.80;8.80;;;;;;;;;;5134229;27;20541;-76
2023/08/05 04:44:39;;;;;;;13.60;9.40;;;;;;;;;;5134185;27;20432;-75
2023/08/05 04:47:07;;;;;;;9.10;7.07;;;;;;;;;;5134241;27;20448;-75
2023/08/05 04:49:34;;;;;;;12.10;8.50;;;;;;;;;;5133939;27;20805;-76
2023/08/05 04:52:05;;;;;;;12.17;7.47;;;;;;;;;;5133792;27;20547;-75
2023/08/05 04:54:33;;;;;;;15.30;9.37;;;;;;;;;;5134188;27;20444;-76
2023/08/05 04:57:00;;;;;;;16.27;7.50;;;;;;;;;;5134251;27;20437;-76
2023/08/05 04:59:27;;;;;;;8.37;6.57;;;;;;;;;;5133657;27;20575;-75
2023/08/05 05:01:54;;;;;;;11.03;7.47;;;;;;;;;;5133890;27;20526;-76
2023/08/05 05:04:22;;;;;;;10.03;7.57;;;;;;;;;;5133484;27;20962;-76
2023/08/05 05:06:49;;;;;;;13.87;8.03;;;;;;;;;;5133909;27;20518;-75
2023/08/05 05:09:17;;;;;;;11.83;9.17;;;;;;;;;;5133806;27;20482;-75
2023/08/05 05:11:45;;;;;;;10.53;7.53;;;;;;;;;;5133585;27;20791;-76
2023/08/05 05:14:12;;;;;;;12.50;8.00;;;;;;;;;;5133674;28;20873;-79
2023/08/05 05:16:39;;;;;;;9.03;7.63;;;;;;;;;;5133745;28;20777;-75
2023/08/05 05:19:06;;;;;;;14.90;7.47;;;;;;;;;;5133675;28;20528;-76
2023/08/05 05:21:33;;;;;;;9.90;8.63;;;;;;;;;;5133440;28;20536;-76
2023/08/05 05:24:00;;;;;;;9.10;7.97;;;;;;;;;;5133135;28;20937;-75
2023/08/05 05:26:29;;;;;;;11.53;9.33;;;;;;;;;;5133461;28;20802;-75
2023/08/05 05:28:56;;;;;;;11.93;9.10;;;;;;;;;;5133640;28;20440;-75
2023/08/05 05:31:23;;;;;;;13.37;9.20;;;;;;;;;;5132862;28;20554;-74
2023/08/05 05:33:51;;;;;;;10.40;9.30;;;;;;;;;;5135743;27;20548;-74
2023/08/05 05:36:18;;;;;;;14.80;9.70;;;;;;;;;;5137641;27;20476;-74
2023/08/05 05:38:45;;;;;;;13.67;8.33;;;;;;;;;;5137446;27;21013;-75
2023/08/05 05:41:13;;;;;;;14.07;9.40;;;;;;;;;;5137328;27;20538;-75
2023/08/05 05:43:42;;;;;;;10.77;9.23;;;;;;;;;;5137244;27;20432;-75
2023/08/05 05:46:10;;;;;;;11.97;9.37;;;;;;;;;;5137349;27;20808;-74
2023/08/05 05:48:37;;;;;;;10.33;9.07;;;;;;;;;;5137287;27;20440;-74
2023/08/05 05:51:05;;;;;;;14.77;9.47;;;;;;;;;;5137027;27;20438;-75
2023/08/05 05:53:32;;;;;;;10.57;8.83;;;;;;;;;;5137231;27;20560;-75
2023/08/05 05:55:59;;;;;;;10.33;8.50;;;;;;;;;;5136920;27;20536;-74
2023/08/05 05:58:27;;;;;;;10.73;9.63;;;;;;;;;;5137215;27;20529;-75
2023/08/05 06:00:56;;;;;;;17.93;9.67;;;;;;;;;;5137602;27;20469;-74
2023/08/05 06:03:24;;;;;;;9.50;7.90;;;;;;;;;;5137287;27;20483;-74
2023/08/05 06:05:51;;;;;;;7.67;6.97;;;;;;;;;;5136831;27;20483;-74
2023/08/05 06:08:18;;;;;;;10.00;6.90;;;;;;;;;;5137020;27;20490;-74
2023/08/05 06:10:45;;;;;;;9.57;7.33;;;;;;;;;;5136553;27;20533;-74
2023/08/05 06:13:12;;;;;;;11.77;7.23;;;;;;;;;;5136787;27;20923;-75
2023/08/05 06:15:41;;;;;;;18.60;6.33;;;;;;;;;;5136598;27;20619;-75
2023/08/05 06:18:10;;;;;;;8.00;6.13;;;;;;;;;;5136405;27;20938;-75
2023/08/05 06:20:37;;;;;;;6.20;5.50;;;;;;;;;;5136237;27;20437;-74
2023/08/05 06:23:06;;;;;;;10.07;7.07;;;;;;;;;;5137145;27;20812;-74
2023/08/05 06:25:33;;;;;;;7.10;6.17;;;;;;;;;;5136208;27;20446;-75
2023/08/05 06:28:00;;;;;;;7.00;6.17;;;;;;;;;;5136693;27;20438;-75
2023/08/05 06:30:28;;;;;;;7.03;5.70;;;;;;;;;;5136164;27;20432;-73
2023/08/05 06:32:55;;;;;;;9.57;6.00;;;;;;;;;;5136352;27;20476;-73
2023/08/05 06:35:23;;;;;;;8.77;6.23;;;;;;;;;;5136343;27;20448;-74
2023/08/05 06:37:51;;;;;;;7.70;5.77;;;;;;;;;;5136812;27;20444;-72
2023/08/05 06:40:18;;;;;;;7.27;5.50;;;;;;;;;;5136169;27;20504;-73
2023/08/05 06:42:45;;;;;;;6.90;5.60;;;;;;;;;;5136643;27;20445;-71
2023/08/05 06:45:13;;;;;;;9.53;5.30;;;;;;;;;;5135672;27;20520;-73
2023/08/05 06:47:40;;;;;;;7.93;6.20;;;;;;;;;;5136715;27;20438;-72
2023/08/05 06:50:08;;;;;;;5.90;5.30;;;;;;;;;;5136522;27;20453;-73
2023/08/05 06:52:37;;;;;;;7.20;4.97;;;;;;;;;;5136251;27;20951;-73
2023/08/05 06:55:05;;;;;;;7.87;5.50;;;;;;;;;;5136627;27;20471;-73
2023/08/05 06:57:32;;;;;;;8.53;5.27;;;;;;;;;;5136373;27;20534;-73
2023/08/05 07:00:00;;;;;;;9.30;5.10;;;;;;;;;;5136350;27;20464;-70
2023/08/05 07:02:27;;;;;;;10.53;5.70;;;;;;;;;;5136160;27;20448;-79
2023/08/05 07:04:55;;;;;;;11.40;6.33;;;;;;;;;;5136604;27;20635;-75
2023/08/05 07:07:22;;;;;;;9.50;5.70;;;;;;;;;;5135805;27;20927;-75
2023/08/05 07:09:51;;;;;;;15.60;11.97;;;;;;;;;;5136068;27;20442;-75
2023/08/05 07:12:18;;;;;;;22.67;9.27;;;;;;;;;;5135522;27;20438;-75
2023/08/05 07:14:48;;;;;;;8.00;4.90;;;;;;;;;;5136185;27;20452;-75
2023/08/05 07:17:15;;;;;;;5.57;4.40;;;;;;;;;;5135751;27;20434;-75
2023/08/05 07:19:42;;;;;;;9.07;4.73;;;;;;;;;;5135878;27;20520;-75
2023/08/05 07:22:09;;;;;;;7.73;4.50;;;;;;;;;;5135306;27;20434;-75
2023/08/05 07:24:36;;;;;;;6.77;4.53;;;;;;;;;;5135601;27;20438;-75
2023/08/05 07:27:06;;;;;;;9.30;5.30;;;;;;;;;;5135576;27;20441;-75
2023/08/05 07:29:33;;;;;;;6.93;5.00;;;;;;;;;;5135091;27;20447;-75
2023/08/05 07:32:00;;;;;;;8.63;5.13;;;;;;;;;;5135053;27;20925;-75
2023/08/05 07:34:31;;;;;;;9.73;5.70;;;;;;;;;;5133949;27;20498;-75
2023/08/05 07:37:00;;;;;;;5.93;5.33;;;;;;;;;;5134807;27;20434;-76
2023/08/05 07:39:33;;;;;;;6.00;5.40;;;;;;;;;;5134447;27;20444;-75
2023/08/05 07:42:00;;;;;;;9.63;6.17;;;;;;;;;;5134675;27;20464;-75
2023/08/05 07:44:30;;;;;;;7.67;6.30;;;;;;;;;;5135027;27;20809;-75
2023/08/05 07:46:58;;;;;;;11.33;5.80;;;;;;;;;;5134665;27;20433;-75
2023/08/05 07:49:26;;;;;;;9.30;6.70;;;;;;;;;;5134727;27;20447;-75
2023/08/05 07:51:53;;;;;;;6.60;6.00;;;;;;;;;;5134856;27;20524;-74
2023/08/05 07:54:21;;;;;;;7.27;6.23;;;;;;;;;;5134376;27;20483;-75
2023/08/05 07:56:48;;;;;;;14.03;6.50;;;;;;;;;;5134660;27;20430;-75
2023/08/05 07:59:17;;;;;;;13.87;7.50;;;;;;;;;;5134121;27;20473;-74
2023/08/05 08:01:46;;;;;;;8.40;6.40;;;;;;;;;;5134350;27;20491;-75
2023/08/05 08:04:14;;;;;;;9.20;6.30;;;;;;;;;;5134477;27;20468;-75
2023/08/05 08:06:45;;;;;;;6.40;5.83;;;;;;;;;;5134576;27;20477;-75
2023/08/05 08:09:13;;;;;;;7.63;6.50;;;;;;;;;;5134498;27;20444;-75
2023/08/05 08:11:40;;;;;;;12.13;8.80;;;;;;;;;;5134039;27;20448;-75
2023/08/05 08:14:07;;;;;;;11.37;9.47;;;;;;;;;;5134371;27;20477;-75
2023/08/05 08:16:34;;;;;;;9.43;6.60;;;;;;;;;;5134152;27;20871;-75
2023/08/05 08:19:04;;;;;;;6.63;6.03;;;;;;;;;;5134056;27;20534;-75
2023/08/05 08:21:31;;;;;;;11.10;6.80;;;;;;;;;;5133991;27;20434;-76
2023/08/05 08:23:59;;;;;;;6.43;5.83;;;;;;;;;;5134203;27;20465;-75
2023/08/05 08:26:26;;;;;;;6.90;6.20;;;;;;;;;;5133787;27;20449;-75
2023/08/05 08:28:53;;;;;;;6.00;5.23;;;;;;;;;;5134221;27;20448;-75
2023/08/05 08:31:20;;;;;;;7.27;5.23;;;;;;;;;;5133939;27;20438;-75
2023/08/05 08:33:48;;;;;;;7.87;6.13;;;;;;;;;;5134106;27;20481;-75
2023/08/05 08:36:16;;;;;;;6.60;6.00;;;;;;;;;;5134002;27;20927;-75
2023/08/05 08:38:43;;;;;;;6.30;5.70;;;;;;;;;;5133612;27;20529;-75
2023/08/05 08:41:11;;;;;;;13.70;6.60;;;;;;;;;;5134276;27;20502;-76
2023/08/05 08:43:38;;;;;;;10.80;7.40;;;;;;;;;;5133867;27;20564;-75
2023/08/05 08:46:07;;;;;;;7.60;6.80;;;;;;;;;;5134334;27;20438;-76
2023/08/05 08:48:36;;;;;;;12.23;7.83;;;;;;;;;;5133797;27;20442;-75
2023/08/05 08:51:03;;;;;;;7.87;7.07;;;;;;;;;;5133751;27;20462;-76
2023/08/05 08:53:33;;;;;;;8.87;8.00;;;;;;;;;;5133901;27;20984;-75
2023/08/05 08:56:00;;;;;;;7.60;6.90;;;;;;;;;;5133385;27;20550;-76
2023/08/05 08:58:27;;;;;;;8.23;7.53;;;;;;;;;;5133171;27;20449;-76
2023/08/05 09:00:55;;;;;;;8.57;7.87;;;;;;;;;;5132967;27;20829;-76
2023/08/05 09:03:25;;;;;;;9.80;8.40;;;;;;;;;;5133555;27;20525;-76
2023/08/05 09:05:55;;;;;;;12.10;9.17;;;;;;;;;;5134121;27;20441;-76
2023/08/05 09:08:22;;;;;;;12.00;10.10;;;;;;;;;;5133369;27;20512;-76
2023/08/05 09:10:51;;;;;;;9.90;8.90;;;;;;;;;;5133442;27;20448;-77
2023/08/05 09:13:19;;;;;;;10.67;8.83;;;;;;;;;;5133119;27;22361;-76
2023/08/05 09:15:47;;;;;;;11.20;8.70;;;;;;;;;;5133569;27;20440;-76
2023/08/05 09:18:15;;;;;;;9.53;8.53;;;;;;;;;;5133139;28;20439;-76
2023/08/05 09:20:42;;;;;;;9.47;8.57;;;;;;;;;;5132961;28;20465;-76
2023/08/05 09:23:10;;;;;;;9.50;8.60;;;;;;;;;;5133055;28;21025;-76
2023/08/05 09:25:40;;;;;;;9.23;8.43;;;;;;;;;;5133064;28;20524;-76
2023/08/05 09:28:10;;;;;;;8.60;7.80;;;;;;;;;;5133621;28;20794;-76
2023/08/05 09:30:37;;;;;;;9.73;8.70;;;;;;;;;;5133187;28;20960;-76
2023/08/05 09:33:04;;;;;;;8.83;7.60;;;;;;;;;;5132972;28;20973;-76
2023/08/05 09:35:32;;;;;;;9.17;7.90;;;;;;;;;;5133185;28;20430;-76
2023/08/05 09:38:01;;;;;;;7.73;6.90;;;;;;;;;;5133278;28;20524;-76
2023/08/05 09:40:29;;;;;;;9.83;8.83;;;;;;;;;;5132993;28;20801;-76
2023/08/05 09:42:59;;;;;;;8.77;7.93;;;;;;;;;;5132910;28;20438;-76
2023/08/05 09:45:30;;;;;;;9.37;6.90;;;;;;;;;;5133656;28;20508;-76
2023/08/05 09:48:03;;;;;;;8.93;7.37;;;;;;;;;;5133579;28;20533;-76
2023/08/05 09:50:32;;;;;;;7.70;6.93;;;;;;;;;;5132520;28;20426;-75
2023/08/05 09:53:00;;;;;;;7.30;6.70;;;;;;;;;;5133240;28;20465;-75
2023/08/05 09:55:28;;;;;;;10.50;7.20;;;;;;;;;;5133182;28;20480;-79
2023/08/05 09:57:56;;;;;;;7.40;6.70;;;;;;;;;;5132801;28;20460;-76
2023/08/05 10:00:24;;;;;;;7.97;7.17;;;;;;;;;;5133256;28;20466;-75
2023/08/05 10:02:53;;;;;;;7.20;6.60;;;;;;;;;;5132937;28;20426;-75
2023/08/05 10:05:22;;;;;;;8.17;7.40;;;;;;;;;;5133223;28;20509;-75
2023/08/05 10:07:53;;;;;;;7.37;6.67;;;;;;;;;;5132555;28;20939;-76
2023/08/05 10:10:21;;;;;;;7.47;6.60;;;;;;;;;;5132848;28;20442;-75
2023/08/05 10:12:51;;;;;;;11.00;7.20;;;;;;;;;;5133042;28;20830;-75
2023/08/05 10:15:20;;;;;;;9.93;6.23;;;;;;;;;;5133034;28;20473;-76
2023/08/05 10:17:48;;;;;;;7.10;5.80;;;;;;;;;;5132913;28;20437;-76
2023/08/05 10:20:18;;;;;;;7.03;6.30;;;;;;;;;;5134118;27;20520;-76
2023/08/05 10:23:00;;;;;;;8.30;5.80;;;;;;;;;;5136744;27;20902;-76
2023/08/05 10:25:39;;;;;;;5.83;5.23;;;;;;;;;;5136730;27;20488;-76
2023/08/05 10:28:06;;;;;;;8.23;5.10;;;;;;;;;;5136583;27;20863;-75
2023/08/05 10:30:42;;;;;;;5.03;4.63;;;;;;;;;;5136341;27;20532;-75
2023/08/05 10:33:09;;;;;;;5.63;5.13;;;;;;;;;;5135975;27;20464;-75
2023/08/05 10:35:41;;;;;;;7.03;5.77;;;;;;;;;;5136308;27;20477;-75
2023/08/05 10:38:09;;;;;;;4.80;4.40;;;;;;;;;;5136323;27;20564;-75
2023/08/05 10:40:41;;;;;;;7.70;5.27;;;;;;;;;;5136470;27;20454;-75
2023/08/05 10:43:10;;;;;;;5.27;4.80;;;;;;;;;;5135948;27;20478;-75
2023/08/05 10:45:40;;;;;;;4.60;4.20;;;;;;;;;;5136570;27;20449;-75
2023/08/05 10:48:13;;;;;;;7.73;4.33;;;;;;;;;;5136629;27;20501;-75
2023/08/05 10:50:43;;;;;;;4.90;4.50;;;;;;;;;;5135990;27;20953;-75
2023/08/05 10:53:12;;;;;;;5.00;4.53;;;;;;;;;;5136045;27;20435;-75
2023/08/05 10:55:48;;;;;;;6.80;5.07;;;;;;;;;;5135934;27;20477;-75
2023/08/05 10:58:16;;;;;;;4.80;4.40;;;;;;;;;;5136013;27;20524;-75
2023/08/05 11:00:44;;;;;;;5.13;4.63;;;;;;;;;;5135613;27;20505;-76
2023/08/05 11:03:31;;;;;;;6.20;5.10;;;;;;;;;;5136090;27;20434;-75
2023/08/05 11:06:02;;;;;;;6.80;4.70;;;;;;;;;;5135833;27;20441;-76
2023/08/05 11:08:30;;;;;;;6.33;5.83;;;;;;;;;;5135496;27;20438;-77
2023/08/05 11:10:59;;;;;;;5.00;4.50;;;;;;;;;;5135738;27;20546;-76
2023/08/05 11:13:26;;;;;;;5.03;4.10;;;;;;;;;;5135489;27;20426;-75
2023/08/05 11:16:03;;;;;;;4.77;4.10;;;;;;;;;;5135448;27;20569;-75
2023/08/05 11:18:31;;;;;;;4.07;3.63;;;;;;;;;;5135966;27;20864;-75
2023/08/05 11:20:59;;;;;;;4.90;4.20;;;;;;;;;;5135361;27;20929;-76
2023/08/05 11:23:32;;;;;;;5.53;4.30;;;;;;;;;;5135775;27;20802;-76
2023/08/05 11:26:01;;;;;;;4.03;3.73;;;;;;;;;;5135393;27;20432;-76
2023/08/05 11:28:29;;;;;;;6.80;5.30;;;;;;;;;;5135703;27;20440;-76
2023/08/05 11:30:56;;;;;;;6.40;3.90;;;;;;;;;;5135372;27;20444;-71
2023/08/05 11:33:24;;;;;;;6.80;3.80;;;;;;;;;;5135312;27;20467;-73
2023/08/05 11:35:53;;;;;;;5.67;4.03;;;;;;;;;;5134761;27;20552;-73
2023/08/05 11:38:21;;;;;;;6.90;4.27;;;;;;;;;;5135002;27;20440;-73
2023/08/05 11:40:49;;;;;;;4.70;4.30;;;;;;;;;;5135229;27;20483;-73
2023/08/05 11:43:19;;;;;;;5.60;4.53;;;;;;;;;;5135493;27;20433;-72
2023/08/05 11:45:46;;;;;;;5.70;4.63;;;;;;;;;;5134855;27;20966;-73
2023/08/05 11:48:20;;;;;;;3.63;3.33;;;;;;;;;;5135204;27;21000;-72
2023/08/05 11:50:47;;;;;;;3.90;3.60;;;;;;;;;;5134958;27;20524;-72
2023/08/05 11:53:14;;;;;;;5.80;3.50;;;;;;;;;;5135340;27;20449;-73
2023/08/05 11:55:43;;;;;;;4.73;4.33;;;;;;;;;;5134492;27;21007;-73
2023/08/05 11:58:10;;;;;;;6.40;5.00;;;;;;;;;;5135039;27;20431;-72
2023/08/05 12:00:39;;;;;;;5.20;4.80;;;;;;;;;;5134936;27;20472;-73
2023/08/05 12:03:07;;;;;;;4.83;4.40;;;;;;;;;;5134494;27;20430;-73
2023/08/05 12:05:34;;;;;;;4.37;4.00;;;;;;;;;;5134644;27;20533;-73
2023/08/05 12:08:01;;;;;;;5.30;4.20;;;;;;;;;;5134647;27;20534;-73
2023/08/05 12:10:29;;;;;;;5.23;4.73;;;;;;;;;;5134028;27;20452;-72
2023/08/05 12:12:57;;;;;;;5.43;4.93;;;;;;;;;;5134217;27;20885;-72
2023/08/05 12:15:26;;;;;;;6.00;5.40;;;;;;;;;;5134272;27;20563;-72
2023/08/05 12:17:56;;;;;;;5.13;4.63;;;;;;;;;;5135185;27;20440;-72
2023/08/05 12:20:24;;;;;;;9.83;8.80;;;;;;;;;;5134617;27;20937;-72
2023/08/05 12:22:51;;;;;;;5.00;4.60;;;;;;;;;;5133907;27;21030;-75
2023/08/05 12:25:19;;;;;;;5.10;4.60;;;;;;;;;;5134188;27;20552;-75
2023/08/05 12:27:46;;;;;;;5.10;4.70;;;;;;;;;;5134292;27;20790;-75
2023/08/05 12:30:15;;;;;;;6.63;6.13;;;;;;;;;;5133658;27;20767;-75
2023/08/05 12:32:42;;;;;;;9.00;5.50;;;;;;;;;;5133444;27;20437;-75
2023/08/05 12:35:11;;;;;;;5.50;5.00;;;;;;;;;;5133957;27;21010;-75
2023/08/05 12:37:39;;;;;;;5.13;4.73;;;;;;;;;;5134176;27;20497;-75
2023/08/05 12:40:07;;;;;;;5.90;5.50;;;;;;;;;;5134218;27;20450;-75
2023/08/05 12:42:35;;;;;;;6.13;5.53;;;;;;;;;;5132669;27;20433;-75
2023/08/05 12:45:04;;;;;;;6.70;5.80;;;;;;;;;;5133392;27;20780;-75
2023/08/05 12:47:32;;;;;;;8.07;5.97;;;;;;;;;;5133594;27;20444;-75
2023/08/05 12:49:59;;;;;;;6.50;5.87;;;;;;;;;;5133439;27;20524;-75
2023/08/05 12:52:27;;;;;;;5.53;5.13;;;;;;;;;;5133944;27;20851;-75
2023/08/05 12:54:55;;;;;;;6.53;5.93;;;;;;;;;;5133564;27;20576;-75
2023/08/05 12:57:22;;;;;;;6.10;5.50;;;;;;;;;;5133592;27;20447;-75
2023/08/05 12:59:49;;;;;;;6.97;6.27;;;;;;;;;;5133054;27;20478;-76
2023/08/05 13:02:21;;;;;;;5.90;5.40;;;;;;;;;;5133286;27;20490;-74
2023/08/05 13:04:48;;;;;;;5.53;5.13;;;;;;;;;;5133290;27;20429;-75
2023/08/05 13:07:16;;;;;;;5.40;5.00;;;;;;;;;;5133588;27;20815;-74
2023/08/05 13:09:44;;;;;;;7.00;6.17;;;;;;;;;;5131893;27;20527;-74
2023/08/05 13:12:13;;;;;;;6.90;6.00;;;;;;;;;;5127397;27;20441;-74
2023/08/05 13:14:40;;;;;;;6.23;5.70;;;;;;;;;;5132653;27;20479;-74
2023/08/05 13:17:07;;;;;;;10.83;9.90;;;;;;;;;;5132764;27;20926;-74
2023/08/05 13:19:35;;;;;;;7.20;6.60;;;;;;;;;;5133218;28;20465;-74
2023/08/05 13:22:02;;;;;;;20.90;18.87;;;;;;;;;;5133348;28;20526;-74
2023/08/05 13:24:32;;;;;;;8.33;7.20;;;;;;;;;;5133944;28;20480;-73
2023/08/05 13:27:00;;;;;;;8.80;8.10;;;;;;;;;;5133456;28;20535;-74
2023/08/05 13:29:28;;;;;;;8.20;7.60;;;;;;;;;;5133034;28;20872;-74
2023/08/05 13:31:55;;;;;;;8.20;7.50;;;;;;;;;;5132938;28;20796;-74
2023/08/05 13:34:22;;;;;;;8.37;7.30;;;;;;;;;;5132933;28;20793;-74
2023/08/05 13:36:49;;;;;;;7.23;6.67;;;;;;;;;;5133029;28;20509;-74
2023/08/05 13:39:17;;;;;;;7.27;6.50;;;;;;;;;;5133152;28;20583;-75
2023/08/05 13:41:44;;;;;;;6.10;5.60;;;;;;;;;;5133458;28;20937;-75
2023/08/05 13:44:12;;;;;;;6.33;5.73;;;;;;;;;;5133217;28;20439;-74
2023/08/05 13:46:39;;;;;;;6.43;5.93;;;;;;;;;;5133198;28;20535;-74
2023/08/05 13:49:07;;;;;;;5.70;5.30;;;;;;;;;;5133174;28;20433;-74
2023/08/05 13:51:34;;;;;;;5.27;4.87;;;;;;;;;;5132714;28;20536;-74
2023/08/05 13:54:01;;;;;;;6.37;5.77;;;;;;;;;;5134283;27;20793;-74
2023/08/05 13:56:28;;;;;;;6.40;5.67;;;;;;;;;;5137105;27;20473;-74
2023/08/05 13:58:55;;;;;;;6.07;5.40;;;;;;;;;;5136788;27;20434;-74
2023/08/05 14:01:24;;;;;;;5.93;5.43;;;;;;;;;;5136925;27;20508;-74
2023/08/05 14:03:51;;;;;;;5.70;5.20;;;;;;;;;;5136818;27;20956;-74
2023/08/05 14:06:18;;;;;;;5.90;5.40;;;;;;;;;;5137167;27;20478;-74
2023/08/05 14:08:46;;;;;;;6.80;6.10;;;;;;;;;;5136868;27;20437;-74
2023/08/05 14:11:13;;;;;;;6.37;5.77;;;;;;;;;;5136461;27;20948;-75
2023/08/05 14:13:40;;;;;;;5.93;5.43;;;;;;;;;;5136787;27;20450;-74
2023/08/05 14:16:08;;;;;;;5.70;5.30;;;;;;;;;;5136751;27;20566;-74
2023/08/05 14:18:36;;;;;;;6.07;5.57;;;;;;;;;;5136804;27;20465;-75
2023/08/05 14:21:04;;;;;;;5.87;5.37;;;;;;;;;;5136556;27;20522;-75
2023/08/05 14:23:31;;;;;;;19.80;17.97;;;;;;;;;;5136338;27;20640;-75
2023/08/05 14:25:58;;;;;;;7.43;6.83;;;;;;;;;;5136697;27;20437;-75
2023/08/05 14:28:25;;;;;;;8.53;5.90;;;;;;;;;;5136320;27;20523;-74
2023/08/05 14:30:52;;;;;;;9.53;5.50;;;;;;;;;;5136436;27;20466;-75
2023/08/05 14:33:20;;;;;;;7.10;6.40;;;;;;;;;;5136600;27;20524;-75
2023/08/05 14:35:48;;;;;;;8.03;7.23;;;;;;;;;;5136105;27;20514;-75
2023/08/05 14:38:15;;;;;;;12.43;11.00;;;;;;;;;;5136519;27;20435;-74
2023/08/05 14:40:42;;;;;;;10.30;9.37;;;;;;;;;;5136292;27;20536;-74
2023/08/05 14:43:10;;;;;;;6.20;5.53;;;;;;;;;;5135661;27;20539;-74